Catàleg de serveis del Meteocat
Campanya meteocatpedra

Dades de l'estació automàtica PN del Garraf - el Rascler

?
?
Resum diari 22:30 TU
Dades diàries de l'estació meteorològica
Temperatura mitjana 7.7 °C
Temperatura màxima 11.0 °C 14:07 TU
Temperatura mínima 5.9 °C 5:08 TU
Humitat relativa mitjana 83%
Precipitació acumulada 3.0 mm
Ratxa màxima del vent (2 m) 30.2 km/h - 266º 18:18 TU
Irradiació solar global 5.0 MJ/m2

El tram horari està expressat en Temps Universal (TU). Cal sumar una hora en horari d'hivern i dues en horari d'estiu per passar a l'hora oficial.

PN del Garraf - el Rascler

Metadades estació meteorol´gica
Municipi Begues
Comarca Baix Llobregat
Altitud 573 m
Data alta 29.02.1996
Estat actual Operativa
Dades de període
Període
TU
TM
°C
TX
°C
TN
°C
HRM
%
PPT
mm
VVM (2 m)
km/h
DVM (2 m)
graus
VVX (2 m)
km/h
RS
W/m2
00:00 - 00:30 7.2 7.3 7.1 72 0.0 13.3 308 21.6 0
00:30 - 01:00 7.0 7.3 6.7 73 0.0 9.4 313 16.2 0
01:00 - 01:30 6.9 7.0 6.8 73 0.0 7.2 313 14.0 0
01:30 - 02:00 6.6 6.9 6.5 75 0.0 9.0 336 14.4 0
02:00 - 02:30 6.5 6.6 6.3 76 0.0 7.6 334 12.2 0
02:30 - 03:00 6.3 6.4 6.2 78 0.0 6.8 321 11.5 0
03:00 - 03:30 6.5 6.6 6.3 78 0.0 5.4 346 11.2 0
03:30 - 04:00 6.4 6.6 6.2 79 0.0 9.7 339 14.8 0
04:00 - 04:30 6.4 6.7 6.2 80 0.0 8.3 345 13.3 0
04:30 - 05:00 6.4 6.7 6.1 80 0.0 8.3 2 15.1 0
05:00 - 05:30 6.0 6.2 5.9 83 0.0 14.0 358 21.6 0
05:30 - 06:00 6.6 7.2 6.2 80 0.0 14.4 2 21.6 0
06:00 - 06:30 7.5 7.7 7.2 74 0.0 12.2 4 23.8 0
06:30 - 07:00 7.9 8.0 7.8 73 0.0 5.8 40 14.0 2
07:00 - 07:30 7.8 7.9 7.7 84 0.0 4.7 66 9.4 8
07:30 - 08:00 7.5 7.7 7.3 90 0.6 4.0 54 7.9 12
08:00 - 08:30 6.7 7.2 6.5 92 1.1 5.0 18 9.0 20
08:30 - 09:00 6.8 7.0 6.5 94 0.8 4.7 60 9.4 40
09:00 - 09:30 7.0 7.0 6.9 97 0.4 3.6 74 12.6 49
09:30 - 10:00 7.0 7.3 6.9 98 0.0 1.8 75 5.4 72
10:00 - 10:30 7.2 7.3 7.1 98 0.0 3.2 19 8.6 71
10:30 - 11:00 7.3 7.6 7.0 97 0.1 1.8 85 6.5 87
11:00 - 11:30 7.3 7.6 7.2 95 0.0 2.2 82 9.0 49
11:30 - 12:00 7.6 7.8 7.3 94 0.0 2.2 72 7.2 152
12:00 - 12:30 8.7 9.7 7.9 88 0.0 1.4 211 7.9 322
12:30 - 13:00 10.2 10.9 9.2 89 0.0 4.7 255 11.9 466
13:00 - 13:30 10.0 10.6 9.1 85 0.0 4.7 238 9.7 381
13:30 - 14:00 9.9 10.7 9.0 82 0.0 3.6 262 8.6 303
14:00 - 14:30 10.6 11.0 10.2 77 0.0 5.8 248 14.0 329
14:30 - 15:00 9.6 10.1 9.2 80 0.0 6.5 260 16.6 167
15:00 - 15:30 10.0 10.3 9.7 80 0.0 9.0 252 18.7 180
15:30 - 16:00 9.3 9.9 8.8 83 0.0 10.1 250 17.3 97
16:00 - 16:30 8.4 8.8 8.0 88 0.0 8.6 245 16.9 27
16:30 - 17:00 7.7 8.0 7.6 93 0.0 6.8 242 13.3 1
17:00 - 17:30 7.8 8.0 7.7 91 0.0 6.8 249 14.0 0
17:30 - 18:00 7.9 8.1 7.5 85 0.0 10.8 266 23.4 0
18:00 - 18:30 7.7 7.9 7.4 90 0.0 15.8 259 30.2 0
18:30 - 19:00 7.9 8.1 7.6 93 0.0 13.7 268 27.4 0
19:00 - 19:30 8.1 8.4 7.8 88 0.0 10.4 266 22.7 0
19:30 - 20:00 8.2 8.3 8.0 84 0.0 10.1 270 21.2 0
20:00 - 20:30 7.7 8.0 7.4 82 0.0 10.1 292 26.6 0
20:30 - 21:00 7.6 7.7 7.4 78 0.0 13.7 307 26.3 0
21:00 - 21:30 7.8 8.2 7.5 69 0.0 8.3 310 14.0 0
21:30 - 22:00 7.9 8.3 7.6 63 0.0 9.0 294 21.6 0
22:00 - 22:30 7.6 8.1 7.2 67 0.0 6.5 281 18.4 0
22:30 - 23:00 7.4 7.9 7.2 65 0.0 5.8 271 13.7 0

Les dades en taronja només han passat un control de qualitat automàtic. Resta pendent la seva validació definitiva.